sensor_id;sensor_type;location;lat;lon;timestamp;P1;durP1;ratioP1;P2;durP2;ratioP2
74241;SDS011;62599;49.146;10.426;2023-05-10T00:00:50;1.23;;;1.13;;
74241;SDS011;62599;49.146;10.426;2023-05-10T00:03:15;1.60;;;1.37;;
74241;SDS011;62599;49.146;10.426;2023-05-10T00:05:41;1.65;;;1.30;;
74241;SDS011;62599;49.146;10.426;2023-05-10T00:08:06;1.65;;;1.23;;
74241;SDS011;62599;49.146;10.426;2023-05-10T00:10:32;2.65;;;1.20;;
74241;SDS011;62599;49.146;10.426;2023-05-10T00:12:57;1.93;;;1.40;;
74241;SDS011;62599;49.146;10.426;2023-05-10T00:15:26;1.40;;;0.70;;
74241;SDS011;62599;49.146;10.426;2023-05-10T00:17:51;1.33;;;1.20;;
74241;SDS011;62599;49.146;10.426;2023-05-10T00:20:17;1.73;;;1.20;;
74241;SDS011;62599;49.146;10.426;2023-05-10T00:22:42;1.23;;;1.08;;
74241;SDS011;62599;49.146;10.426;2023-05-10T00:25:08;2.47;;;1.15;;
74241;SDS011;62599;49.146;10.426;2023-05-10T00:27:34;1.17;;;1.02;;
74241;SDS011;62599;49.146;10.426;2023-05-10T00:29:59;1.80;;;1.13;;
74241;SDS011;62599;49.146;10.426;2023-05-10T00:32:25;1.48;;;1.38;;
74241;SDS011;62599;49.146;10.426;2023-05-10T00:34:50;1.37;;;1.03;;
74241;SDS011;62599;49.146;10.426;2023-05-10T00:37:15;1.37;;;1.27;;
74241;SDS011;62599;49.146;10.426;2023-05-10T00:39:41;1.20;;;1.10;;
74241;SDS011;62599;49.146;10.426;2023-05-10T00:42:06;1.83;;;1.17;;
74241;SDS011;62599;49.146;10.426;2023-05-10T00:44:31;0.80;;;0.80;;
74241;SDS011;62599;49.146;10.426;2023-05-10T00:46:57;3.08;;;1.42;;
74241;SDS011;62599;49.146;10.426;2023-05-10T00:49:24;3.15;;;0.90;;
74241;SDS011;62599;49.146;10.426;2023-05-10T00:51:49;1.02;;;0.88;;
74241;SDS011;62599;49.146;10.426;2023-05-10T00:54:15;0.77;;;0.77;;
74241;SDS011;62599;49.146;10.426;2023-05-10T00:56:41;3.38;;;0.88;;
74241;SDS011;62599;49.146;10.426;2023-05-10T00:59:07;1.05;;;0.75;;
74241;SDS011;62599;49.146;10.426;2023-05-10T01:01:33;0.40;;;0.40;;
74241;SDS011;62599;49.146;10.426;2023-05-10T01:04:00;1.58;;;0.65;;
74241;SDS011;62599;49.146;10.426;2023-05-10T01:06:28;0.50;;;0.50;;
74241;SDS011;62599;49.146;10.426;2023-05-10T01:08:53;1.33;;;0.45;;
74241;SDS011;62599;49.146;10.426;2023-05-10T01:11:18;0.60;;;0.60;;
74241;SDS011;62599;49.146;10.426;2023-05-10T01:13:44;1.70;;;0.70;;
74241;SDS011;62599;49.146;10.426;2023-05-10T01:16:15;1.05;;;0.73;;
74241;SDS011;62599;49.146;10.426;2023-05-10T01:18:41;0.73;;;0.63;;
74241;SDS011;62599;49.146;10.426;2023-05-10T01:21:16;1.30;;;0.93;;
74241;SDS011;62599;49.146;10.426;2023-05-10T01:29:55;1.75;;;0.90;;
74241;SDS011;62599;49.146;10.426;2023-05-10T01:43:45;0.75;;;0.68;;
74241;SDS011;62599;49.146;10.426;2023-05-10T01:47:01;0.73;;;0.60;;
74241;SDS011;62599;49.146;10.426;2023-05-10T01:49:23;0.68;;;0.60;;
74241;SDS011;62599;49.146;10.426;2023-05-10T01:51:52;1.98;;;0.60;;
74241;SDS011;62599;49.146;10.426;2023-05-10T01:56:55;0.85;;;0.85;;
74241;SDS011;62599;49.146;10.426;2023-05-10T01:59:24;1.10;;;1.10;;
74241;SDS011;62599;49.146;10.426;2023-05-10T02:01:54;0.77;;;0.77;;
74241;SDS011;62599;49.146;10.426;2023-05-10T02:04:23;0.80;;;0.80;;
74241;SDS011;62599;49.146;10.426;2023-05-10T02:06:50;0.80;;;0.80;;
74241;SDS011;62599;49.146;10.426;2023-05-10T02:09:18;0.68;;;0.68;;
74241;SDS011;62599;49.146;10.426;2023-05-10T02:11:45;0.60;;;0.52;;
74241;SDS011;62599;49.146;10.426;2023-05-10T02:14:14;2.53;;;0.50;;
74241;SDS011;62599;49.146;10.426;2023-05-10T02:16:40;0.70;;;0.60;;
74241;SDS011;62599;49.146;10.426;2023-05-10T02:19:08;0.60;;;0.60;;
74241;SDS011;62599;49.146;10.426;2023-05-10T02:21:37;0.60;;;0.60;;
74241;SDS011;62599;49.146;10.426;2023-05-10T02:24:05;0.70;;;0.65;;
74241;SDS011;62599;49.146;10.426;2023-05-10T02:26:31;0.63;;;0.63;;
74241;SDS011;62599;49.146;10.426;2023-05-10T02:28:59;0.80;;;0.80;;
74241;SDS011;62599;49.146;10.426;2023-05-10T02:31:28;0.30;;;0.30;;
74241;SDS011;62599;49.146;10.426;2023-05-10T02:33:58;0.80;;;0.68;;
74241;SDS011;62599;49.146;10.426;2023-05-10T02:36:26;2.45;;;0.73;;
74241;SDS011;62599;49.146;10.426;2023-05-10T02:38:52;1.02;;;0.55;;
74241;SDS011;62599;49.146;10.426;2023-05-10T02:41:19;0.38;;;0.38;;
74241;SDS011;62599;49.146;10.426;2023-05-10T02:43:48;0.55;;;0.55;;
74241;SDS011;62599;49.146;10.426;2023-05-10T02:46:20;0.70;;;0.50;;
74241;SDS011;62599;49.146;10.426;2023-05-10T02:48:46;0.40;;;0.40;;
74241;SDS011;62599;49.146;10.426;2023-05-10T02:51:11;0.50;;;0.50;;
74241;SDS011;62599;49.146;10.426;2023-05-10T02:53:40;1.02;;;1.02;;
74241;SDS011;62599;49.146;10.426;2023-05-10T02:56:12;0.95;;;0.85;;
74241;SDS011;62599;49.146;10.426;2023-05-10T02:58:44;0.60;;;0.60;;
74241;SDS011;62599;49.146;10.426;2023-05-10T03:01:11;0.65;;;0.65;;
74241;SDS011;62599;49.146;10.426;2023-05-10T03:03:36;2.35;;;1.17;;
74241;SDS011;62599;49.146;10.426;2023-05-10T03:06:01;0.53;;;0.53;;
74241;SDS011;62599;49.146;10.426;2023-05-10T03:08:30;0.40;;;0.40;;
74241;SDS011;62599;49.146;10.426;2023-05-10T03:13:44;0.80;;;0.80;;
74241;SDS011;62599;49.146;10.426;2023-05-10T03:16:32;0.70;;;0.70;;
74241;SDS011;62599;49.146;10.426;2023-05-10T03:19:26;0.57;;;0.57;;
74241;SDS011;62599;49.146;10.426;2023-05-10T03:21:59;0.70;;;0.70;;
74241;SDS011;62599;49.146;10.426;2023-05-10T03:24:29;0.68;;;0.68;;
74241;SDS011;62599;49.146;10.426;2023-05-10T03:26:55;0.63;;;0.63;;
74241;SDS011;62599;49.146;10.426;2023-05-10T03:29:27;0.60;;;0.60;;
74241;SDS011;62599;49.146;10.426;2023-05-10T03:31:54;0.60;;;0.60;;
74241;SDS011;62599;49.146;10.426;2023-05-10T03:34:23;0.63;;;0.63;;
74241;SDS011;62599;49.146;10.426;2023-05-10T03:36:49;1.40;;;1.30;;
74241;SDS011;62599;49.146;10.426;2023-05-10T03:39:14;0.77;;;0.70;;
74241;SDS011;62599;49.146;10.426;2023-05-10T03:41:40;1.10;;;1.00;;
74241;SDS011;62599;49.146;10.426;2023-05-10T03:44:05;1.13;;;1.03;;
74241;SDS011;62599;49.146;10.426;2023-05-10T03:46:30;1.00;;;0.90;;
74241;SDS011;62599;49.146;10.426;2023-05-10T03:48:56;3.88;;;1.25;;
74241;SDS011;62599;49.146;10.426;2023-05-10T03:51:21;1.33;;;1.13;;
74241;SDS011;62599;49.146;10.426;2023-05-10T03:53:47;1.30;;;1.20;;
74241;SDS011;62599;49.146;10.426;2023-05-10T03:56:12;1.98;;;1.30;;
74241;SDS011;62599;49.146;10.426;2023-05-10T03:58:38;1.13;;;1.07;;
74241;SDS011;62599;49.146;10.426;2023-05-10T04:01:03;1.23;;;1.13;;
74241;SDS011;62599;49.146;10.426;2023-05-10T04:03:29;1.30;;;1.20;;
74241;SDS011;62599;49.146;10.426;2023-05-10T04:05:59;1.50;;;1.40;;
74241;SDS011;62599;49.146;10.426;2023-05-10T04:08:25;1.77;;;1.25;;
74241;SDS011;62599;49.146;10.426;2023-05-10T04:10:51;5.55;;;1.38;;
74241;SDS011;62599;49.146;10.426;2023-05-10T04:13:16;1.47;;;0.83;;
74241;SDS011;62599;49.146;10.426;2023-05-10T04:15:42;1.58;;;1.48;;
74241;SDS011;62599;49.146;10.426;2023-05-10T04:18:08;7.60;;;1.40;;
74241;SDS011;62599;49.146;10.426;2023-05-10T04:20:33;1.33;;;1.03;;
74241;SDS011;62599;49.146;10.426;2023-05-10T04:22:59;2.95;;;2.72;;
74241;SDS011;62599;49.146;10.426;2023-05-10T04:25:27;2.72;;;1.95;;
74241;SDS011;62599;49.146;10.426;2023-05-10T04:27:53;2.03;;;1.88;;
74241;SDS011;62599;49.146;10.426;2023-05-10T04:30:18;1.27;;;1.17;;
74241;SDS011;62599;49.146;10.426;2023-05-10T04:32:43;1.40;;;1.30;;
74241;SDS011;62599;49.146;10.426;2023-05-10T04:35:09;1.67;;;1.57;;
74241;SDS011;62599;49.146;10.426;2023-05-10T04:37:35;1.58;;;1.42;;
74241;SDS011;62599;49.146;10.426;2023-05-10T04:40:01;0.80;;;0.80;;
74241;SDS011;62599;49.146;10.426;2023-05-10T04:42:28;1.80;;;1.70;;
74241;SDS011;62599;49.146;10.426;2023-05-10T04:44:54;1.33;;;1.23;;
74241;SDS011;62599;49.146;10.426;2023-05-10T04:47:19;1.55;;;1.25;;
74241;SDS011;62599;49.146;10.426;2023-05-10T04:49:45;1.58;;;1.48;;
74241;SDS011;62599;49.146;10.426;2023-05-10T04:52:10;1.75;;;1.65;;
74241;SDS011;62599;49.146;10.426;2023-05-10T04:54:36;1.65;;;1.25;;
74241;SDS011;62599;49.146;10.426;2023-05-10T04:57:02;1.30;;;0.80;;
74241;SDS011;62599;49.146;10.426;2023-05-10T04:59:27;2.00;;;1.83;;
74241;SDS011;62599;49.146;10.426;2023-05-10T05:01:52;1.20;;;1.10;;
74241;SDS011;62599;49.146;10.426;2023-05-10T05:04:18;1.47;;;1.37;;
74241;SDS011;62599;49.146;10.426;2023-05-10T05:06:43;1.47;;;1.37;;
74241;SDS011;62599;49.146;10.426;2023-05-10T05:09:08;1.83;;;1.47;;
74241;SDS011;62599;49.146;10.426;2023-05-10T05:11:35;2.65;;;1.35;;
74241;SDS011;62599;49.146;10.426;2023-05-10T05:14:00;2.05;;;1.55;;
74241;SDS011;62599;49.146;10.426;2023-05-10T05:16:30;1.90;;;1.40;;
74241;SDS011;62599;49.146;10.426;2023-05-10T05:18:55;1.95;;;1.35;;
74241;SDS011;62599;49.146;10.426;2023-05-10T05:21:21;2.13;;;1.92;;
74241;SDS011;62599;49.146;10.426;2023-05-10T05:23:47;1.77;;;1.50;;
74241;SDS011;62599;49.146;10.426;2023-05-10T05:26:12;1.87;;;1.57;;
74241;SDS011;62599;49.146;10.426;2023-05-10T05:28:38;1.33;;;1.23;;
74241;SDS011;62599;49.146;10.426;2023-05-10T05:31:04;2.67;;;1.40;;
74241;SDS011;62599;49.146;10.426;2023-05-10T05:33:30;2.08;;;1.77;;
74241;SDS011;62599;49.146;10.426;2023-05-10T05:35:55;5.40;;;1.55;;
74241;SDS011;62599;49.146;10.426;2023-05-10T05:38:21;2.28;;;1.70;;
74241;SDS011;62599;49.146;10.426;2023-05-10T05:40:47;2.20;;;1.30;;
74241;SDS011;62599;49.146;10.426;2023-05-10T05:43:12;3.22;;;1.42;;
74241;SDS011;62599;49.146;10.426;2023-05-10T05:45:38;1.70;;;1.40;;
74241;SDS011;62599;49.146;10.426;2023-05-10T05:48:03;1.47;;;1.37;;
74241;SDS011;62599;49.146;10.426;2023-05-10T05:51:08;1.88;;;1.67;;
74241;SDS011;62599;49.146;10.426;2023-05-10T05:53:35;2.63;;;1.75;;
74241;SDS011;62599;49.146;10.426;2023-05-10T05:56:01;1.65;;;1.55;;
74241;SDS011;62599;49.146;10.426;2023-05-10T05:58:26;4.57;;;1.40;;
74241;SDS011;62599;49.146;10.426;2023-05-10T06:00:52;1.80;;;1.50;;
74241;SDS011;62599;49.146;10.426;2023-05-10T06:03:18;2.45;;;1.80;;
74241;SDS011;62599;49.146;10.426;2023-05-10T06:05:44;2.47;;;2.10;;
74241;SDS011;62599;49.146;10.426;2023-05-10T06:08:09;2.20;;;2.00;;
74241;SDS011;62599;49.146;10.426;2023-05-10T06:10:35;2.17;;;1.55;;
74241;SDS011;62599;49.146;10.426;2023-05-10T06:13:01;1.95;;;1.75;;
74241;SDS011;62599;49.146;10.426;2023-05-10T06:15:26;2.38;;;1.80;;
74241;SDS011;62599;49.146;10.426;2023-05-10T06:17:52;1.60;;;1.13;;
74241;SDS011;62599;49.146;10.426;2023-05-10T06:20:17;2.72;;;1.52;;
74241;SDS011;62599;49.146;10.426;2023-05-10T06:22:43;1.83;;;1.67;;
74241;SDS011;62599;49.146;10.426;2023-05-10T06:25:11;1.75;;;1.42;;
74241;SDS011;62599;49.146;10.426;2023-05-10T06:27:37;2.58;;;1.73;;
74241;SDS011;62599;49.146;10.426;2023-05-10T06:30:03;2.35;;;1.88;;
74241;SDS011;62599;49.146;10.426;2023-05-10T06:32:29;2.42;;;2.00;;
74241;SDS011;62599;49.146;10.426;2023-05-10T06:34:55;1.83;;;1.33;;
74241;SDS011;62599;49.146;10.426;2023-05-10T06:37:20;1.40;;;1.30;;
74241;SDS011;62599;49.146;10.426;2023-05-10T06:39:46;2.57;;;1.53;;
74241;SDS011;62599;49.146;10.426;2023-05-10T06:42:11;1.37;;;1.27;;
74241;SDS011;62599;49.146;10.426;2023-05-10T06:44:36;4.93;;;1.13;;
74241;SDS011;62599;49.146;10.426;2023-05-10T06:47:02;2.03;;;1.83;;
74241;SDS011;62599;49.146;10.426;2023-05-10T06:49:27;1.48;;;1.00;;
74241;SDS011;62599;49.146;10.426;2023-05-10T06:51:56;0.88;;;0.77;;
74241;SDS011;62599;49.146;10.426;2023-05-10T06:54:21;2.03;;;1.60;;
74241;SDS011;62599;49.146;10.426;2023-05-10T06:56:46;1.63;;;1.50;;
74241;SDS011;62599;49.146;10.426;2023-05-10T06:59:12;4.13;;;1.30;;
74241;SDS011;62599;49.146;10.426;2023-05-10T07:01:38;1.95;;;1.55;;
74241;SDS011;62599;49.146;10.426;2023-05-10T07:04:04;2.28;;;1.88;;
74241;SDS011;62599;49.146;10.426;2023-05-10T07:06:29;1.90;;;1.80;;
74241;SDS011;62599;49.146;10.426;2023-05-10T07:08:55;1.23;;;1.17;;
74241;SDS011;62599;49.146;10.426;2023-05-10T07:11:20;1.63;;;1.53;;
74241;SDS011;62599;49.146;10.426;2023-05-10T07:13:46;1.60;;;1.50;;
74241;SDS011;62599;49.146;10.426;2023-05-10T07:16:11;1.40;;;1.30;;
74241;SDS011;62599;49.146;10.426;2023-05-10T07:18:37;1.63;;;1.48;;
74241;SDS011;62599;49.146;10.426;2023-05-10T07:21:05;1.52;;;1.38;;
74241;SDS011;62599;49.146;10.426;2023-05-10T07:23:30;1.80;;;1.52;;
74241;SDS011;62599;49.146;10.426;2023-05-10T07:25:56;2.35;;;1.80;;
74241;SDS011;62599;49.146;10.426;2023-05-10T07:28:22;2.75;;;1.88;;
74241;SDS011;62599;49.146;10.426;2023-05-10T07:30:49;2.65;;;1.70;;
74241;SDS011;62599;49.146;10.426;2023-05-10T07:33:14;1.95;;;1.70;;
74241;SDS011;62599;49.146;10.426;2023-05-10T07:35:40;2.08;;;1.73;;
74241;SDS011;62599;49.146;10.426;2023-05-10T07:38:06;2.15;;;2.03;;
74241;SDS011;62599;49.146;10.426;2023-05-10T07:40:31;2.05;;;1.73;;
74241;SDS011;62599;49.146;10.426;2023-05-10T07:42:57;5.13;;;2.40;;
74241;SDS011;62599;49.146;10.426;2023-05-10T07:45:23;2.65;;;2.00;;
74241;SDS011;62599;49.146;10.426;2023-05-10T07:47:48;2.30;;;1.77;;
74241;SDS011;62599;49.146;10.426;2023-05-10T07:50:14;1.95;;;1.63;;
74241;SDS011;62599;49.146;10.426;2023-05-10T07:52:40;2.60;;;2.03;;
74241;SDS011;62599;49.146;10.426;2023-05-10T07:55:06;2.55;;;2.22;;
74241;SDS011;62599;49.146;10.426;2023-05-10T07:57:33;2.83;;;2.42;;
74241;SDS011;62599;49.146;10.426;2023-05-10T07:59:58;2.67;;;1.90;;
74241;SDS011;62599;49.146;10.426;2023-05-10T08:02:24;2.05;;;1.85;;
74241;SDS011;62599;49.146;10.426;2023-05-10T08:04:49;2.77;;;2.07;;
74241;SDS011;62599;49.146;10.426;2023-05-10T08:07:14;1.97;;;1.70;;
74241;SDS011;62599;49.146;10.426;2023-05-10T08:09:40;2.42;;;1.92;;
74241;SDS011;62599;49.146;10.426;2023-05-10T08:12:05;2.88;;;2.30;;
74241;SDS011;62599;49.146;10.426;2023-05-10T08:14:31;6.35;;;2.75;;
74241;SDS011;62599;49.146;10.426;2023-05-10T08:16:56;9.82;;;3.28;;
74241;SDS011;62599;49.146;10.426;2023-05-10T08:19:22;2.08;;;1.88;;
74241;SDS011;62599;49.146;10.426;2023-05-10T08:21:47;2.53;;;1.65;;
74241;SDS011;62599;49.146;10.426;2023-05-10T08:24:13;1.92;;;1.67;;
74241;SDS011;62599;49.146;10.426;2023-05-10T08:26:39;1.95;;;1.77;;
74241;SDS011;62599;49.146;10.426;2023-05-10T08:29:04;3.70;;;1.98;;
74241;SDS011;62599;49.146;10.426;2023-05-10T08:31:29;3.37;;;1.77;;
74241;SDS011;62599;49.146;10.426;2023-05-10T08:33:55;3.67;;;2.53;;
74241;SDS011;62599;49.146;10.426;2023-05-10T08:36:20;1.37;;;1.27;;
74241;SDS011;62599;49.146;10.426;2023-05-10T08:38:52;2.30;;;1.50;;
74241;SDS011;62599;49.146;10.426;2023-05-10T08:41:21;3.20;;;2.13;;
74241;SDS011;62599;49.146;10.426;2023-05-10T08:43:47;3.53;;;2.28;;
74241;SDS011;62599;49.146;10.426;2023-05-10T08:46:16;4.13;;;2.08;;
74241;SDS011;62599;49.146;10.426;2023-05-10T08:48:43;1.90;;;1.73;;
74241;SDS011;62599;49.146;10.426;2023-05-10T08:51:34;6.07;;;1.67;;
74241;SDS011;62599;49.146;10.426;2023-05-10T08:54:02;1.40;;;1.30;;
74241;SDS011;62599;49.146;10.426;2023-05-10T08:56:29;2.97;;;1.98;;
74241;SDS011;62599;49.146;10.426;2023-05-10T08:58:59;1.70;;;1.27;;
74241;SDS011;62599;49.146;10.426;2023-05-10T09:01:25;1.30;;;1.25;;
74241;SDS011;62599;49.146;10.426;2023-05-10T09:03:52;2.63;;;1.67;;
74241;SDS011;62599;49.146;10.426;2023-05-10T09:06:17;1.10;;;1.00;;
74241;SDS011;62599;49.146;10.426;2023-05-10T09:08:43;3.40;;;2.00;;
74241;SDS011;62599;49.146;10.426;2023-05-10T09:11:11;2.25;;;1.73;;
74241;SDS011;62599;49.146;10.426;2023-05-10T09:13:37;1.83;;;1.65;;
74241;SDS011;62599;49.146;10.426;2023-05-10T09:16:03;2.22;;;1.98;;
74241;SDS011;62599;49.146;10.426;2023-05-10T09:18:29;2.88;;;1.83;;
74241;SDS011;62599;49.146;10.426;2023-05-10T09:20:58;2.47;;;1.83;;
74241;SDS011;62599;49.146;10.426;2023-05-10T09:23:23;0.93;;;0.93;;
74241;SDS011;62599;49.146;10.426;2023-05-10T09:26:11;1.08;;;0.98;;
74241;SDS011;62599;49.146;10.426;2023-05-10T09:28:53;1.25;;;0.98;;
74241;SDS011;62599;49.146;10.426;2023-05-10T09:31:20;1.80;;;1.13;;
74241;SDS011;62599;49.146;10.426;2023-05-10T09:33:46;2.00;;;1.90;;
74241;SDS011;62599;49.146;10.426;2023-05-10T09:36:12;1.40;;;1.30;;
74241;SDS011;62599;49.146;10.426;2023-05-10T09:38:48;1.60;;;1.48;;
74241;SDS011;62599;49.146;10.426;2023-05-10T09:41:19;2.53;;;1.77;;
74241;SDS011;62599;49.146;10.426;2023-05-10T09:43:46;3.67;;;1.33;;
74241;SDS011;62599;49.146;10.426;2023-05-10T09:46:12;1.90;;;1.48;;
74241;SDS011;62599;49.146;10.426;2023-05-10T09:48:42;3.90;;;2.38;;
74241;SDS011;62599;49.146;10.426;2023-05-10T09:51:32;4.07;;;2.10;;
74241;SDS011;62599;49.146;10.426;2023-05-10T09:56:55;0.90;;;0.90;;
74241;SDS011;62599;49.146;10.426;2023-05-10T09:59:20;2.70;;;0.77;;
74241;SDS011;62599;49.146;10.426;2023-05-10T10:01:49;1.20;;;1.10;;
74241;SDS011;62599;49.146;10.426;2023-05-10T10:04:16;1.23;;;1.05;;
74241;SDS011;62599;49.146;10.426;2023-05-10T10:06:42;0.90;;;0.88;;
74241;SDS011;62599;49.146;10.426;2023-05-10T10:09:07;1.77;;;1.67;;
74241;SDS011;62599;49.146;10.426;2023-05-10T10:11:34;1.98;;;1.13;;
74241;SDS011;62599;49.146;10.426;2023-05-10T10:14:01;1.48;;;1.38;;
74241;SDS011;62599;49.146;10.426;2023-05-10T10:16:28;1.45;;;1.35;;
74241;SDS011;62599;49.146;10.426;2023-05-10T10:18:54;0.93;;;0.90;;
74241;SDS011;62599;49.146;10.426;2023-05-10T10:21:20;2.03;;;1.70;;
74241;SDS011;62599;49.146;10.426;2023-05-10T10:23:50;1.42;;;0.40;;
74241;SDS011;62599;49.146;10.426;2023-05-10T10:26:17;2.00;;;1.90;;
74241;SDS011;62599;49.146;10.426;2023-05-10T10:32:09;1.30;;;1.20;;
74241;SDS011;62599;49.146;10.426;2023-05-10T10:34:35;1.10;;;1.00;;
74241;SDS011;62599;49.146;10.426;2023-05-10T10:37:05;1.17;;;1.08;;
74241;SDS011;62599;49.146;10.426;2023-05-10T10:39:31;1.33;;;1.23;;
74241;SDS011;62599;49.146;10.426;2023-05-10T10:41:58;1.40;;;1.30;;
74241;SDS011;62599;49.146;10.426;2023-05-10T10:49:48;0.60;;;0.60;;
74241;SDS011;62599;49.146;10.426;2023-05-10T10:54:41;1.50;;;1.40;;
74241;SDS011;62599;49.146;10.426;2023-05-10T10:57:14;2.38;;;1.45;;
74241;SDS011;62599;49.146;10.426;2023-05-10T10:59:43;1.98;;;1.88;;
74241;SDS011;62599;49.146;10.426;2023-05-10T11:02:09;1.17;;;0.65;;
74241;SDS011;62599;49.146;10.426;2023-05-10T11:04:41;1.25;;;1.15;;
74241;SDS011;62599;49.146;10.426;2023-05-10T11:07:20;4.00;;;0.73;;
74241;SDS011;62599;49.146;10.426;2023-05-10T11:09:49;1.33;;;1.23;;
74241;SDS011;62599;49.146;10.426;2023-05-10T11:12:14;1.13;;;0.70;;
74241;SDS011;62599;49.146;10.426;2023-05-10T11:14:40;1.15;;;1.05;;
74241;SDS011;62599;49.146;10.426;2023-05-10T11:17:24;0.93;;;0.50;;
74241;SDS011;62599;49.146;10.426;2023-05-10T11:22:52;2.08;;;1.98;;
74241;SDS011;62599;49.146;10.426;2023-05-10T11:25:19;0.65;;;0.65;;
74241;SDS011;62599;49.146;10.426;2023-05-10T11:27:47;1.85;;;1.30;;
74241;SDS011;62599;49.146;10.426;2023-05-10T11:30:13;1.17;;;1.15;;
74241;SDS011;62599;49.146;10.426;2023-05-10T11:32:42;1.45;;;1.35;;
74241;SDS011;62599;49.146;10.426;2023-05-10T11:35:09;1.20;;;1.10;;
74241;SDS011;62599;49.146;10.426;2023-05-10T11:37:35;1.45;;;1.35;;
74241;SDS011;62599;49.146;10.426;2023-05-10T11:40:01;0.63;;;0.63;;
74241;SDS011;62599;49.146;10.426;2023-05-10T11:42:27;1.02;;;0.93;;
74241;SDS011;62599;49.146;10.426;2023-05-10T11:44:53;0.55;;;0.47;;
74241;SDS011;62599;49.146;10.426;2023-05-10T11:47:19;1.55;;;0.82;;
74241;SDS011;62599;49.146;10.426;2023-05-10T11:49:45;0.80;;;0.65;;
74241;SDS011;62599;49.146;10.426;2023-05-10T11:52:11;3.33;;;1.63;;
74241;SDS011;62599;49.146;10.426;2023-05-10T11:54:36;1.75;;;1.65;;
74241;SDS011;62599;49.146;10.426;2023-05-10T11:57:02;1.35;;;1.25;;
74241;SDS011;62599;49.146;10.426;2023-05-10T11:59:28;3.10;;;0.68;;
74241;SDS011;62599;49.146;10.426;2023-05-10T12:01:53;1.45;;;1.02;;
74241;SDS011;62599;49.146;10.426;2023-05-10T12:04:19;1.30;;;0.95;;
74241;SDS011;62599;49.146;10.426;2023-05-10T12:06:45;0.63;;;0.63;;
74241;SDS011;62599;49.146;10.426;2023-05-10T12:09:11;2.22;;;1.38;;
74241;SDS011;62599;49.146;10.426;2023-05-10T12:11:37;1.73;;;0.80;;
74241;SDS011;62599;49.146;10.426;2023-05-10T12:14:05;1.10;;;0.77;;
74241;SDS011;62599;49.146;10.426;2023-05-10T12:16:30;1.77;;;0.80;;
74241;SDS011;62599;49.146;10.426;2023-05-10T12:18:57;1.30;;;0.70;;
74241;SDS011;62599;49.146;10.426;2023-05-10T12:21:24;2.10;;;2.00;;
74241;SDS011;62599;49.146;10.426;2023-05-10T12:23:50;1.58;;;1.48;;
74241;SDS011;62599;49.146;10.426;2023-05-10T12:26:17;0.80;;;0.70;;
74241;SDS011;62599;49.146;10.426;2023-05-10T12:28:43;1.70;;;0.70;;
74241;SDS011;62599;49.146;10.426;2023-05-10T12:31:12;0.70;;;0.70;;
74241;SDS011;62599;49.146;10.426;2023-05-10T12:34:26;1.15;;;0.85;;
74241;SDS011;62599;49.146;10.426;2023-05-10T12:36:58;0.80;;;0.68;;
74241;SDS011;62599;49.146;10.426;2023-05-10T12:39:44;1.05;;;0.80;;
74241;SDS011;62599;49.146;10.426;2023-05-10T12:42:11;1.65;;;1.55;;
74241;SDS011;62599;49.146;10.426;2023-05-10T12:44:36;1.40;;;1.30;;
74241;SDS011;62599;49.146;10.426;2023-05-10T12:47:02;4.73;;;0.90;;
74241;SDS011;62599;49.146;10.426;2023-05-10T12:49:27;2.03;;;1.45;;
74241;SDS011;62599;49.146;10.426;2023-05-10T12:51:53;1.03;;;1.03;;
74241;SDS011;62599;49.146;10.426;2023-05-10T12:54:18;1.50;;;1.40;;
74241;SDS011;62599;49.146;10.426;2023-05-10T12:56:44;2.93;;;0.87;;
74241;SDS011;62599;49.146;10.426;2023-05-10T12:59:09;0.77;;;0.70;;
74241;SDS011;62599;49.146;10.426;2023-05-10T13:01:37;0.38;;;0.35;;
74241;SDS011;62599;49.146;10.426;2023-05-10T13:04:03;0.93;;;0.70;;
74241;SDS011;62599;49.146;10.426;2023-05-10T13:06:28;2.13;;;1.25;;
74241;SDS011;62599;49.146;10.426;2023-05-10T13:08:54;1.38;;;1.27;;
74241;SDS011;62599;49.146;10.426;2023-05-10T13:11:19;1.27;;;1.20;;
74241;SDS011;62599;49.146;10.426;2023-05-10T13:13:45;0.82;;;0.40;;
74241;SDS011;62599;49.146;10.426;2023-05-10T13:16:10;1.02;;;0.98;;
74241;SDS011;62599;49.146;10.426;2023-05-10T13:18:35;2.92;;;0.55;;
74241;SDS011;62599;49.146;10.426;2023-05-10T13:21:01;0.30;;;0.20;;
74241;SDS011;62599;49.146;10.426;2023-05-10T13:23:28;0.25;;;0.25;;
74241;SDS011;62599;49.146;10.426;2023-05-10T13:25:54;0.70;;;0.50;;
74241;SDS011;62599;49.146;10.426;2023-05-10T13:28:19;2.00;;;0.37;;
74241;SDS011;62599;49.146;10.426;2023-05-10T13:30:45;2.35;;;0.70;;
74241;SDS011;62599;49.146;10.426;2023-05-10T13:33:10;0.30;;;0.28;;
74241;SDS011;62599;49.146;10.426;2023-05-10T13:35:36;0.47;;;0.35;;
74241;SDS011;62599;49.146;10.426;2023-05-10T13:38:01;2.72;;;0.73;;
74241;SDS011;62599;49.146;10.426;2023-05-10T13:40:27;1.20;;;1.03;;
74241;SDS011;62599;49.146;10.426;2023-05-10T13:42:53;1.13;;;1.13;;
74241;SDS011;62599;49.146;10.426;2023-05-10T13:45:18;0.95;;;0.95;;
74241;SDS011;62599;49.146;10.426;2023-05-10T13:47:44;0.73;;;0.60;;
74241;SDS011;62599;49.146;10.426;2023-05-10T13:50:09;1.63;;;1.53;;
74241;SDS011;62599;49.146;10.426;2023-05-10T13:52:35;0.82;;;0.30;;
74241;SDS011;62599;49.146;10.426;2023-05-10T13:55:00;0.55;;;0.30;;
74241;SDS011;62599;49.146;10.426;2023-05-10T13:57:25;2.57;;;0.23;;
74241;SDS011;62599;49.146;10.426;2023-05-10T13:59:51;0.45;;;0.38;;
74241;SDS011;62599;49.146;10.426;2023-05-10T14:02:17;3.33;;;0.55;;
74241;SDS011;62599;49.146;10.426;2023-05-10T14:04:42;1.20;;;1.10;;
74241;SDS011;62599;49.146;10.426;2023-05-10T14:07:08;0.85;;;0.85;;
74241;SDS011;62599;49.146;10.426;2023-05-10T14:09:33;1.17;;;0.50;;
74241;SDS011;62599;49.146;10.426;2023-05-10T14:11:58;0.50;;;0.43;;
74241;SDS011;62599;49.146;10.426;2023-05-10T14:14:24;0.85;;;0.65;;
74241;SDS011;62599;49.146;10.426;2023-05-10T14:16:49;0.55;;;0.55;;
74241;SDS011;62599;49.146;10.426;2023-05-10T14:19:15;1.52;;;1.38;;
74241;SDS011;62599;49.146;10.426;2023-05-10T14:21:40;1.87;;;1.60;;
74241;SDS011;62599;49.146;10.426;2023-05-10T14:24:06;1.25;;;1.15;;
74241;SDS011;62599;49.146;10.426;2023-05-10T14:26:32;1.08;;;1.02;;
74241;SDS011;62599;49.146;10.426;2023-05-10T14:28:58;3.50;;;0.90;;
74241;SDS011;62599;49.146;10.426;2023-05-10T14:31:24;0.82;;;0.82;;
74241;SDS011;62599;49.146;10.426;2023-05-10T14:33:50;1.88;;;1.15;;
74241;SDS011;62599;49.146;10.426;2023-05-10T14:36:15;0.87;;;0.83;;
74241;SDS011;62599;49.146;10.426;2023-05-10T14:38:42;0.95;;;0.80;;
74241;SDS011;62599;49.146;10.426;2023-05-10T14:41:07;1.30;;;0.73;;
74241;SDS011;62599;49.146;10.426;2023-05-10T14:43:33;1.70;;;1.33;;
74241;SDS011;62599;49.146;10.426;2023-05-10T14:45:58;2.30;;;1.30;;
74241;SDS011;62599;49.146;10.426;2023-05-10T14:48:24;1.87;;;0.77;;
74241;SDS011;62599;49.146;10.426;2023-05-10T14:50:49;1.02;;;0.80;;
74241;SDS011;62599;49.146;10.426;2023-05-10T14:53:15;4.15;;;1.67;;
74241;SDS011;62599;49.146;10.426;2023-05-10T14:55:41;1.42;;;1.33;;
74241;SDS011;62599;49.146;10.426;2023-05-10T14:58:06;1.00;;;1.00;;
74241;SDS011;62599;49.146;10.426;2023-05-10T15:00:31;2.13;;;1.03;;
74241;SDS011;62599;49.146;10.426;2023-05-10T15:02:57;2.20;;;1.48;;
74241;SDS011;62599;49.146;10.426;2023-05-10T15:05:22;3.10;;;2.30;;
74241;SDS011;62599;49.146;10.426;2023-05-10T15:07:48;0.85;;;0.85;;
74241;SDS011;62599;49.146;10.426;2023-05-10T15:10:13;1.58;;;1.17;;
74241;SDS011;62599;49.146;10.426;2023-05-10T15:12:39;5.57;;;2.78;;